createdAt,value
2023-05-11T00:01:04.957Z,8.20
2023-05-11T00:03:33.521Z,8.10
2023-05-11T00:06:02.449Z,8.00
2023-05-11T00:08:30.855Z,7.90
2023-05-11T00:11:01.748Z,7.60
2023-05-11T00:13:30.562Z,7.60
2023-05-11T00:15:58.729Z,7.50
2023-05-11T00:18:27.283Z,7.40
2023-05-11T00:20:56.697Z,7.40
2023-05-11T00:23:24.944Z,7.30
2023-05-11T00:25:53.140Z,7.40
2023-05-11T00:28:22.949Z,7.40
2023-05-11T00:30:51.009Z,7.40
2023-05-11T00:33:19.634Z,7.30
2023-05-11T00:35:49.200Z,7.40
2023-05-11T00:38:17.413Z,7.40
2023-05-11T00:40:45.661Z,7.30
2023-05-11T00:43:13.918Z,7.20
2023-05-11T00:45:45.833Z,7.20
2023-05-11T00:48:14.234Z,7.30
2023-05-11T00:50:42.912Z,7.20
2023-05-11T00:53:11.606Z,7.20
2023-05-11T00:55:39.908Z,7.10
2023-05-11T00:58:08.125Z,7.10
2023-05-11T01:00:36.787Z,7.30
2023-05-11T01:03:07.388Z,7.10
2023-05-11T01:05:45.285Z,7.10
2023-05-11T01:08:18.297Z,7.00
2023-05-11T01:10:50.488Z,7.10
2023-05-11T01:13:27.794Z,7.00
2023-05-11T01:15:59.041Z,7.00
2023-05-11T01:18:36.157Z,7.00
2023-05-11T01:21:12.638Z,7.00
2023-05-11T01:23:53.159Z,6.90
2023-05-11T01:27:00.568Z,6.80
2023-05-11T01:29:49.256Z,6.80
2023-05-11T01:32:23.340Z,6.70
2023-05-11T01:34:57.045Z,6.70
2023-05-11T01:37:26.925Z,6.60
2023-05-11T01:39:58.777Z,6.50
2023-05-11T01:42:33.132Z,6.50
2023-05-11T01:45:02.918Z,6.40
2023-05-11T01:47:35.849Z,6.30
2023-05-11T01:50:06.021Z,6.30
2023-05-11T01:52:38.435Z,6.20
2023-05-11T01:55:08.859Z,6.20
2023-05-11T01:57:39.200Z,6.10
2023-05-11T02:00:10.124Z,6.20
2023-05-11T02:02:47.788Z,6.00
2023-05-11T02:05:22.446Z,5.80
2023-05-11T02:07:52.620Z,5.80
2023-05-11T02:10:22.090Z,5.70
2023-05-11T02:12:52.960Z,5.80
2023-05-11T02:15:23.655Z,5.70
2023-05-11T02:17:55.429Z,5.70
2023-05-11T02:20:25.569Z,5.60
2023-05-11T02:22:56.054Z,5.60
2023-05-11T02:25:25.415Z,5.60
2023-05-11T02:27:53.546Z,5.50
2023-05-11T02:30:22.007Z,5.40
2023-05-11T02:32:56.526Z,5.30
2023-05-11T02:35:29.512Z,5.30
2023-05-11T02:38:02.572Z,5.50
2023-05-11T02:40:38.239Z,5.50
2023-05-11T02:43:11.260Z,5.60
2023-05-11T02:45:46.592Z,5.60
2023-05-11T02:48:23.963Z,5.60
2023-05-11T02:50:56.041Z,5.50
2023-05-11T02:53:31.083Z,5.40
2023-05-11T02:56:00.955Z,5.30
2023-05-11T02:58:30.145Z,5.70
2023-05-11T03:01:12.236Z,5.60
2023-05-11T03:03:42.597Z,5.60
2023-05-11T03:06:10.958Z,5.40
2023-05-11T03:08:39.470Z,5.40
2023-05-11T03:11:08.534Z,5.50
2023-05-11T03:13:37.077Z,5.50
2023-05-11T03:16:07.684Z,5.60
2023-05-11T03:18:37.956Z,5.60
2023-05-11T03:21:08.044Z,5.70
2023-05-11T03:23:37.445Z,5.90
2023-05-11T03:26:07.832Z,5.90
2023-05-11T03:28:39.633Z,5.90
2023-05-11T03:31:09.614Z,5.90
2023-05-11T03:33:38.075Z,5.90
2023-05-11T03:36:11.748Z,5.90
2023-05-11T03:38:41.150Z,6.00
2023-05-11T03:41:18.180Z,6.10
2023-05-11T03:43:53.334Z,6.10
2023-05-11T03:46:24.839Z,6.10
2023-05-11T03:48:54.780Z,6.20
2023-05-11T03:51:27.956Z,6.30
2023-05-11T03:53:57.294Z,6.40
2023-05-11T03:56:25.656Z,6.40
2023-05-11T03:58:54.279Z,6.40
2023-05-11T04:01:23.859Z,6.50
2023-05-11T04:03:54.596Z,6.60
2023-05-11T04:06:24.660Z,6.70
2023-05-11T04:09:05.275Z,6.70
2023-05-11T04:11:37.799Z,6.70
2023-05-11T04:14:06.147Z,6.80
2023-05-11T04:16:34.422Z,7.00
2023-05-11T04:19:03.043Z,7.10
2023-05-11T04:21:32.655Z,7.10
2023-05-11T04:24:00.890Z,7.40
2023-05-11T04:26:30.797Z,7.40
2023-05-11T04:28:59.023Z,7.40
2023-05-11T04:31:27.137Z,7.40
2023-05-11T04:33:55.421Z,7.50
2023-05-11T04:36:23.500Z,7.80
2023-05-11T04:38:53.209Z,7.90
2023-05-11T04:41:22.448Z,8.00
2023-05-11T04:43:53.080Z,8.10
2023-05-11T04:46:21.387Z,8.20
2023-05-11T04:48:50.097Z,8.40
2023-05-11T04:51:18.442Z,9.50
2023-05-11T04:53:47.586Z,8.50
2023-05-11T04:56:15.970Z,8.70
2023-05-11T04:58:44.109Z,8.80
2023-05-11T05:01:13.777Z,8.90
2023-05-11T05:03:42.113Z,9.00
2023-05-11T05:06:10.793Z,9.10
2023-05-11T05:08:39.624Z,9.10
2023-05-11T05:11:08.081Z,9.20
2023-05-11T05:13:37.804Z,9.40
2023-05-11T05:16:06.483Z,9.50
2023-05-11T05:18:36.173Z,9.60
2023-05-11T05:21:04.808Z,9.70
2023-05-11T05:23:32.999Z,9.80
2023-05-11T05:28:32.064Z,10.10
2023-05-11T05:31:00.752Z,10.10
2023-05-11T05:33:29.725Z,10.40
2023-05-11T05:35:59.589Z,10.40
2023-05-11T05:38:28.124Z,10.60
2023-05-11T05:40:57.981Z,10.70
2023-05-11T05:43:27.940Z,10.70
2023-05-11T05:45:56.357Z,10.90
2023-05-11T05:48:25.749Z,11.10
2023-05-11T05:50:54.659Z,11.10
2023-05-11T05:53:24.203Z,11.10
2023-05-11T05:55:52.512Z,11.30
2023-05-11T05:58:20.710Z,11.30
2023-05-11T06:00:49.247Z,11.50
2023-05-11T06:03:17.618Z,11.60
2023-05-11T06:05:45.946Z,11.70
2023-05-11T06:10:43.992Z,12.00
2023-05-11T06:13:12.754Z,12.00
2023-05-11T06:15:43.882Z,12.10
2023-05-11T06:18:24.002Z,12.20
2023-05-11T06:20:52.772Z,12.20
2023-05-11T06:23:20.918Z,12.30
2023-05-11T06:25:51.169Z,12.40
2023-05-11T06:28:22.938Z,12.50
2023-05-11T06:30:51.384Z,12.80
2023-05-11T06:33:19.602Z,12.80
2023-05-11T06:35:47.752Z,13.00
2023-05-11T06:38:16.418Z,13.00
2023-05-11T06:40:45.097Z,13.00
2023-05-11T06:43:14.745Z,13.20
2023-05-11T06:45:48.034Z,13.40
2023-05-11T06:48:16.820Z,13.60
2023-05-11T06:50:45.046Z,13.60
2023-05-11T06:53:17.186Z,13.90
2023-05-11T06:55:45.567Z,13.90
2023-05-11T06:58:15.460Z,13.90
2023-05-11T07:00:43.833Z,14.00
2023-05-11T07:03:12.062Z,14.10
2023-05-11T07:05:40.371Z,14.10
2023-05-11T07:10:37.450Z,14.60
2023-05-11T07:13:05.710Z,14.60
2023-05-11T07:15:35.358Z,14.60
2023-05-11T07:18:03.660Z,14.70
2023-05-11T07:20:32.262Z,15.00
2023-05-11T07:23:00.594Z,15.00
2023-05-11T07:27:57.448Z,15.00
2023-05-11T07:30:26.160Z,15.10
2023-05-11T07:32:55.677Z,15.30
2023-05-11T07:35:24.410Z,15.20
2023-05-11T07:40:21.349Z,15.60
2023-05-11T07:42:49.690Z,15.70
2023-05-11T07:45:18.294Z,15.60
2023-05-11T07:47:46.396Z,15.70
2023-05-11T07:50:17.195Z,15.50
2023-05-11T07:55:14.952Z,16.00
2023-05-11T07:57:43.272Z,15.90
2023-05-11T08:00:15.625Z,15.80
2023-05-11T08:02:46.043Z,15.70
2023-05-11T08:05:16.027Z,15.90
2023-05-11T08:07:44.530Z,15.90
2023-05-11T08:10:14.008Z,15.90
2023-05-11T08:12:42.146Z,15.80
2023-05-11T08:15:11.407Z,16.00
2023-05-11T08:17:39.641Z,16.00
2023-05-11T08:20:09.506Z,16.00
2023-05-11T08:22:39.060Z,16.00
2023-05-11T08:25:08.596Z,16.10
2023-05-11T08:27:36.670Z,16.10
2023-05-11T08:30:05.522Z,16.00
2023-05-11T08:32:50.176Z,16.10
2023-05-11T08:35:24.630Z,16.10
2023-05-11T08:37:54.252Z,16.20
2023-05-11T08:40:25.024Z,16.20
2023-05-11T08:42:57.556Z,16.20
2023-05-11T08:45:27.595Z,16.20
2023-05-11T08:47:56.292Z,16.30
2023-05-11T08:50:24.571Z,16.20
2023-05-11T08:52:54.201Z,16.30
2023-05-11T08:55:25.922Z,16.30
2023-05-11T08:57:57.620Z,16.50
2023-05-11T09:00:26.392Z,16.40
2023-05-11T09:02:54.673Z,16.30
2023-05-11T09:05:24.136Z,16.40
2023-05-11T09:07:55.956Z,16.50
2023-05-11T09:10:24.184Z,16.40
2023-05-11T09:12:52.291Z,16.50
2023-05-11T09:15:20.951Z,16.50
2023-05-11T09:17:49.116Z,16.70
2023-05-11T09:20:25.331Z,16.70
2023-05-11T09:22:55.716Z,16.60
2023-05-11T09:25:25.473Z,16.80
2023-05-11T09:27:53.877Z,16.80
2023-05-11T09:30:23.966Z,16.80
2023-05-11T09:32:53.519Z,16.90
2023-05-11T09:35:26.210Z,17.00
2023-05-11T09:38:04.976Z,17.00
2023-05-11T09:40:35.020Z,17.20
2023-05-11T09:43:04.032Z,17.00
2023-05-11T09:45:42.912Z,17.20
2023-05-11T09:48:26.564Z,17.40
2023-05-11T09:51:03.790Z,17.10
2023-05-11T09:53:43.308Z,17.20
2023-05-11T09:56:12.662Z,17.40
2023-05-11T09:58:51.902Z,17.50
2023-05-11T10:01:30.434Z,17.60
2023-05-11T10:04:13.409Z,17.30
2023-05-11T10:06:49.337Z,17.40
2023-05-11T10:09:23.410Z,17.40
2023-05-11T10:11:52.496Z,17.70
2023-05-11T10:14:21.933Z,17.80
2023-05-11T10:16:51.116Z,17.60
2023-05-11T10:19:20.191Z,17.60
2023-05-11T10:21:48.745Z,17.70
2023-05-11T10:24:20.357Z,17.70
2023-05-11T10:26:49.815Z,17.70
2023-05-11T10:29:20.776Z,17.60
2023-05-11T10:31:51.303Z,17.60
2023-05-11T10:34:20.158Z,17.60
2023-05-11T10:36:49.036Z,17.70
2023-05-11T10:39:18.713Z,17.70
2023-05-11T10:42:00.240Z,17.60
2023-05-11T10:44:55.053Z,17.60
2023-05-11T10:47:50.744Z,17.90
2023-05-11T10:50:46.063Z,17.80
2023-05-11T10:53:43.440Z,17.70
2023-05-11T10:56:27.322Z,17.80
2023-05-11T10:59:19.442Z,17.70
2023-05-11T11:01:52.283Z,17.80
2023-05-11T11:04:21.262Z,17.90
2023-05-11T11:07:04.600Z,17.90
2023-05-11T11:09:52.720Z,17.90
2023-05-11T11:12:23.103Z,18.00
2023-05-11T11:15:02.410Z,18.00
2023-05-11T11:17:32.947Z,17.90
2023-05-11T11:20:02.120Z,18.10
2023-05-11T11:22:47.687Z,18.10
2023-05-11T11:25:37.049Z,18.20
2023-05-11T11:28:06.647Z,18.10
2023-05-11T11:30:34.794Z,18.20
2023-05-11T11:33:34.121Z,18.20
2023-05-11T11:36:02.787Z,18.30
2023-05-11T11:38:32.538Z,18.30
2023-05-11T11:41:00.892Z,18.30
2023-05-11T11:43:45.852Z,18.40
2023-05-11T11:46:27.099Z,18.50
2023-05-11T11:49:08.201Z,18.50
2023-05-11T11:51:40.425Z,18.40
2023-05-11T11:54:09.803Z,18.40
2023-05-11T11:56:48.017Z,18.30
2023-05-11T11:59:18.331Z,18.40
2023-05-11T12:01:47.020Z,18.50
2023-05-11T12:04:40.827Z,18.50
2023-05-11T12:07:11.257Z,18.50
2023-05-11T12:09:41.416Z,18.60
2023-05-11T12:12:11.081Z,18.70
2023-05-11T12:14:48.883Z,18.80
2023-05-11T12:17:24.720Z,18.80
2023-05-11T12:19:52.883Z,18.80
2023-05-11T12:22:24.890Z,18.90
2023-05-11T12:24:57.247Z,19.00
2023-05-11T12:27:27.134Z,18.80
2023-05-11T12:29:59.535Z,18.80
2023-05-11T12:32:29.435Z,18.90
2023-05-11T12:35:02.378Z,18.90
2023-05-11T12:37:31.177Z,18.80
2023-05-11T12:40:00.621Z,18.80
2023-05-11T12:42:29.023Z,19.00
2023-05-11T12:44:58.587Z,18.80
2023-05-11T12:47:26.869Z,19.00
2023-05-11T12:49:56.252Z,19.10
2023-05-11T12:52:25.596Z,19.10
2023-05-11T12:54:55.137Z,19.10
2023-05-11T12:57:27.963Z,18.80
2023-05-11T13:00:12.436Z,19.00
2023-05-11T13:02:50.992Z,19.00
2023-05-11T13:05:21.366Z,19.00
2023-05-11T13:07:57.822Z,19.20
2023-05-11T13:10:26.844Z,19.10
2023-05-11T13:12:55.126Z,19.10
2023-05-11T13:15:25.542Z,19.10
2023-05-11T13:17:58.541Z,19.10
2023-05-11T13:20:29.683Z,19.10
2023-05-11T13:23:06.671Z,19.10
2023-05-11T13:25:35.751Z,19.20
2023-05-11T13:28:04.043Z,19.20
2023-05-11T13:30:35.181Z,19.30
2023-05-11T13:33:03.947Z,19.30
2023-05-11T13:35:32.174Z,19.40
2023-05-11T13:38:00.499Z,19.40
2023-05-11T13:40:28.845Z,19.30
2023-05-11T13:42:57.232Z,19.30
2023-05-11T13:45:25.512Z,19.20
2023-05-11T13:47:55.910Z,19.20
2023-05-11T13:50:24.436Z,19.30
2023-05-11T13:52:53.068Z,19.20
2023-05-11T13:55:22.013Z,19.20
2023-05-11T13:57:50.369Z,19.30
2023-05-11T14:00:19.621Z,19.20
2023-05-11T14:02:50.815Z,19.40
2023-05-11T14:05:20.902Z,19.50
2023-05-11T14:07:49.398Z,19.30
2023-05-11T14:10:18.344Z,19.30
2023-05-11T14:12:47.380Z,19.20
2023-05-11T14:15:15.603Z,19.30
2023-05-11T14:17:44.017Z,19.40
2023-05-11T14:20:13.371Z,19.50
2023-05-11T14:22:43.040Z,19.50
2023-05-11T14:25:11.920Z,19.60
2023-05-11T14:27:40.069Z,19.60
2023-05-11T14:30:09.441Z,19.50
2023-05-11T14:32:37.731Z,19.40
2023-05-11T14:35:08.951Z,19.10
2023-05-11T14:37:37.662Z,19.40
2023-05-11T14:40:08.659Z,19.30
2023-05-11T14:42:36.946Z,19.40
2023-05-11T14:45:05.596Z,19.30
2023-05-11T14:47:33.957Z,19.50
2023-05-11T14:50:02.107Z,19.50
2023-05-11T14:52:30.390Z,19.30
2023-05-11T14:54:58.590Z,19.30
2023-05-11T14:57:28.279Z,19.40
2023-05-11T14:59:59.952Z,19.30
2023-05-11T15:02:30.182Z,19.20
2023-05-11T15:04:58.595Z,19.30
2023-05-11T15:07:27.022Z,19.20
2023-05-11T15:09:56.163Z,19.30
2023-05-11T15:12:26.918Z,19.20
2023-05-11T15:14:56.379Z,19.20
2023-05-11T15:17:24.806Z,19.10
2023-05-11T15:19:53.254Z,19.10
2023-05-11T15:22:22.750Z,19.10
2023-05-11T15:24:51.043Z,19.10
2023-05-11T15:27:19.315Z,19.30
2023-05-11T15:29:47.642Z,19.20
2023-05-11T15:32:18.221Z,19.30
2023-05-11T15:34:58.535Z,19.20
2023-05-11T15:37:27.955Z,19.30
2023-05-11T15:39:56.173Z,19.20
2023-05-11T15:42:24.430Z,19.30
2023-05-11T15:44:52.716Z,19.20
2023-05-11T15:47:22.460Z,19.20
2023-05-11T15:49:50.946Z,19.10
2023-05-11T15:52:19.427Z,19.20
2023-05-11T15:54:47.630Z,19.40
2023-05-11T15:57:16.265Z,19.70
2023-05-11T15:59:44.830Z,19.40
2023-05-11T16:02:13.222Z,19.40
2023-05-11T16:04:42.746Z,19.40
2023-05-11T16:07:11.000Z,19.60
2023-05-11T16:09:39.081Z,19.80
2023-05-11T16:12:08.093Z,19.80
2023-05-11T16:14:36.384Z,19.60
2023-05-11T16:17:05.089Z,19.60
2023-05-11T16:19:33.215Z,19.70
2023-05-11T16:22:02.834Z,19.60
2023-05-11T16:24:34.332Z,20.00
2023-05-11T16:27:03.084Z,19.10
2023-05-11T16:29:31.213Z,19.00
2023-05-11T16:31:59.615Z,18.90
2023-05-11T16:34:28.273Z,18.90
2023-05-11T16:36:58.719Z,18.80
2023-05-11T16:39:28.799Z,18.70
2023-05-11T16:41:56.937Z,18.70
2023-05-11T16:44:25.424Z,18.60
2023-05-11T16:46:53.739Z,18.60
2023-05-11T16:49:21.947Z,18.40
2023-05-11T16:51:50.120Z,18.40
2023-05-11T16:54:18.452Z,17.90
2023-05-11T16:56:47.903Z,18.20
2023-05-11T16:59:16.275Z,18.10
2023-05-11T17:01:46.094Z,18.20
2023-05-11T17:04:14.738Z,18.00
2023-05-11T17:06:42.863Z,17.90
2023-05-11T17:09:11.001Z,17.90
2023-05-11T17:11:39.121Z,18.00
2023-05-11T17:14:08.686Z,18.10
2023-05-11T17:16:36.805Z,18.00
2023-05-11T17:21:33.731Z,17.60
2023-05-11T17:24:01.909Z,17.40
2023-05-11T17:26:43.467Z,17.40
2023-05-11T17:29:17.616Z,17.30
2023-05-11T17:31:49.212Z,17.10
2023-05-11T17:34:17.830Z,17.10
2023-05-11T17:36:46.230Z,17.10
2023-05-11T17:39:16.052Z,16.90
2023-05-11T17:41:44.189Z,16.80
2023-05-11T17:44:12.461Z,16.70
2023-05-11T17:46:41.925Z,16.80
2023-05-11T17:49:10.222Z,16.60
2023-05-11T17:51:38.387Z,16.70
2023-05-11T17:54:06.757Z,16.10
2023-05-11T17:56:34.890Z,16.30
2023-05-11T17:59:03.438Z,16.10
2023-05-11T18:01:31.856Z,16.00
2023-05-11T18:04:02.210Z,15.70
2023-05-11T18:06:30.900Z,15.60
2023-05-11T18:08:59.888Z,15.60
2023-05-11T18:11:28.204Z,15.60
2023-05-11T18:13:56.568Z,15.30
2023-05-11T18:16:24.844Z,14.80
2023-05-11T18:18:53.235Z,15.00
2023-05-11T18:21:22.714Z,14.90
2023-05-11T18:23:51.592Z,14.80
2023-05-11T18:26:20.161Z,14.80
2023-05-11T18:28:48.575Z,14.50
2023-05-11T18:31:18.940Z,14.30
2023-05-11T18:33:47.663Z,14.10
2023-05-11T18:36:16.057Z,14.10
2023-05-11T18:38:45.575Z,13.80
2023-05-11T18:41:14.088Z,13.70
2023-05-11T18:43:43.738Z,13.60
2023-05-11T18:46:12.351Z,13.60
2023-05-11T18:48:40.580Z,13.60
2023-05-11T18:51:08.794Z,13.50
2023-05-11T18:53:37.524Z,13.30
2023-05-11T18:56:07.118Z,13.30
2023-05-11T18:58:35.412Z,13.10
2023-05-11T19:01:03.959Z,13.20
2023-05-11T19:03:32.895Z,13.10
2023-05-11T19:06:01.981Z,13.10
2023-05-11T19:08:30.450Z,12.90
2023-05-11T19:10:58.578Z,13.00
2023-05-11T19:13:28.265Z,12.80
2023-05-11T19:15:56.532Z,12.70
2023-05-11T19:18:25.683Z,12.70
2023-05-11T19:20:54.139Z,12.60
2023-05-11T19:23:22.460Z,12.60
2023-05-11T19:25:50.567Z,12.50
2023-05-11T19:28:19.001Z,12.50
2023-05-11T19:30:48.530Z,12.00
2023-05-11T19:33:16.781Z,12.40
2023-05-11T19:35:44.997Z,12.40
2023-05-11T19:38:13.264Z,12.30
2023-05-11T19:43:13.170Z,12.20
2023-05-11T19:45:43.462Z,12.30
2023-05-11T19:48:13.690Z,12.60
2023-05-11T19:50:42.316Z,12.50
2023-05-11T19:53:10.574Z,12.40
2023-05-11T19:55:39.874Z,12.20
2023-05-11T19:58:08.158Z,12.20
2023-05-11T20:00:37.013Z,12.10
2023-05-11T20:03:05.674Z,12.10
2023-05-11T20:05:35.326Z,12.00
2023-05-11T20:08:05.875Z,11.90
2023-05-11T20:10:34.037Z,11.90
2023-05-11T20:13:03.987Z,11.80
2023-05-11T20:18:03.681Z,11.80
2023-05-11T20:20:32.621Z,11.90
2023-05-11T20:23:02.449Z,11.70
2023-05-11T20:25:30.873Z,11.70
2023-05-11T20:27:59.062Z,11.50
2023-05-11T20:30:27.176Z,11.40
2023-05-11T20:35:26.897Z,11.50
2023-05-11T20:37:55.237Z,11.60
2023-05-11T20:40:25.658Z,12.30
2023-05-11T20:42:54.121Z,11.60
2023-05-11T20:45:22.489Z,11.70
2023-05-11T20:47:50.638Z,11.60
2023-05-11T20:50:19.177Z,11.30
2023-05-11T20:52:47.479Z,11.20
2023-05-11T20:55:16.087Z,11.40
2023-05-11T20:57:45.715Z,11.50
2023-05-11T21:00:16.127Z,11.40
2023-05-11T21:02:45.903Z,11.20
2023-05-11T21:05:14.241Z,11.20
2023-05-11T21:07:42.533Z,11.00
2023-05-11T21:10:12.738Z,11.00
2023-05-11T21:12:41.009Z,11.00
2023-05-11T21:15:11.394Z,11.00
2023-05-11T21:17:39.664Z,11.00
2023-05-11T21:20:08.989Z,11.10
2023-05-11T21:22:38.359Z,10.90
2023-05-11T21:25:07.578Z,10.90
2023-05-11T21:27:36.597Z,10.70
2023-05-11T21:30:05.326Z,10.70
2023-05-11T21:32:34.948Z,10.70
2023-05-11T21:35:03.542Z,10.90
2023-05-11T21:37:33.789Z,10.70
2023-05-11T21:40:01.911Z,10.70
2023-05-11T21:42:34.453Z,10.60
2023-05-11T21:45:03.088Z,10.60
2023-05-11T21:47:31.217Z,10.50
2023-05-11T21:50:01.171Z,10.50
2023-05-11T21:52:29.276Z,10.40
2023-05-11T21:54:57.537Z,10.60
2023-05-11T21:57:25.695Z,10.50
2023-05-11T21:59:53.804Z,10.60
2023-05-11T22:02:22.025Z,10.60
2023-05-11T22:04:50.630Z,10.60
2023-05-11T22:07:20.474Z,10.50
2023-05-11T22:09:48.717Z,10.40
2023-05-11T22:12:17.002Z,10.20
2023-05-11T22:14:45.769Z,10.10
2023-05-11T22:17:13.803Z,9.90
2023-05-11T22:19:42.011Z,9.70
2023-05-11T22:22:10.110Z,10.00
2023-05-11T22:24:39.625Z,9.80
2023-05-11T22:27:09.922Z,9.70
2023-05-11T22:29:38.053Z,9.80
2023-05-11T22:32:06.973Z,9.70
2023-05-11T22:34:35.476Z,9.70
2023-05-11T22:37:03.619Z,9.70
2023-05-11T22:39:31.674Z,9.80
2023-05-11T22:42:01.215Z,9.80
2023-05-11T22:44:29.485Z,9.80
2023-05-11T22:46:59.820Z,9.70
2023-05-11T22:49:28.903Z,9.70
2023-05-11T22:51:58.833Z,9.70
2023-05-11T22:54:27.195Z,9.60
2023-05-11T22:56:55.776Z,9.60
2023-05-11T22:59:25.298Z,9.70
2023-05-11T23:01:55.306Z,9.60
2023-05-11T23:04:23.597Z,9.70
2023-05-11T23:06:51.610Z,9.60
2023-05-11T23:09:20.564Z,9.60
2023-05-11T23:11:49.624Z,9.60
2023-05-11T23:14:17.796Z,9.60
2023-05-11T23:16:47.207Z,9.50
2023-05-11T23:19:15.444Z,9.40
2023-05-11T23:21:43.523Z,9.50
2023-05-11T23:26:40.354Z,9.50
2023-05-11T23:29:08.592Z,9.40
2023-05-11T23:31:36.783Z,9.30
2023-05-11T23:34:06.497Z,9.40
2023-05-11T23:36:34.706Z,9.40
2023-05-11T23:39:02.897Z,9.40
2023-05-11T23:41:31.067Z,9.50
2023-05-11T23:46:28.963Z,9.50
2023-05-11T23:51:27.246Z,9.50
2023-05-11T23:53:55.424Z,9.40
2023-05-11T23:56:23.518Z,9.40
2023-05-11T23:58:51.631Z,9.40
